sensor_id;sensor_type;location;lat;lon;timestamp;pressure;altitude;pressure_sealevel;temperature;humidity
24752;BME280;27246;52.376;4.628;2023-04-27T00:00:37;102020.75;;;7.28;62.99
24752;BME280;27246;52.376;4.628;2023-04-27T00:05:39;102018.94;;;7.17;64.14
24752;BME280;27246;52.376;4.628;2023-04-27T00:10:40;102016.13;;;7.08;64.79
24752;BME280;27246;52.376;4.628;2023-04-27T00:15:42;102016.47;;;7.14;64.31
24752;BME280;27246;52.376;4.628;2023-04-27T00:20:46;102008.94;;;7.07;64.66
24752;BME280;27246;52.376;4.628;2023-04-27T00:25:52;102019.03;;;7.06;65.22
24752;BME280;27246;52.376;4.628;2023-04-27T00:30:54;102013.47;;;6.96;65.49
24752;BME280;27246;52.376;4.628;2023-04-27T00:36:00;102005.03;;;6.88;65.83
24752;BME280;27246;52.376;4.628;2023-04-27T00:41:03;102008.31;;;6.82;65.93
24752;BME280;27246;52.376;4.628;2023-04-27T00:46:05;102008.56;;;6.79;66.01
24752;BME280;27246;52.376;4.628;2023-04-27T00:51:07;101999.28;;;6.70;66.58
24752;BME280;27246;52.376;4.628;2023-04-27T00:56:08;102001.53;;;6.65;66.74
24752;BME280;27246;52.376;4.628;2023-04-27T01:01:10;102003.88;;;6.70;67.15
24752;BME280;27246;52.376;4.628;2023-04-27T01:06:13;102003.00;;;6.69;66.97
24752;BME280;27246;52.376;4.628;2023-04-27T01:11:17;102012.75;;;6.62;66.49
24752;BME280;27246;52.376;4.628;2023-04-27T01:16:18;102006.94;;;6.55;66.32
24752;BME280;27246;52.376;4.628;2023-04-27T01:21:20;102004.94;;;6.57;66.56
24752;BME280;27246;52.376;4.628;2023-04-27T01:26:22;101998.09;;;6.52;67.08
24752;BME280;27246;52.376;4.628;2023-04-27T01:31:24;101995.88;;;6.46;67.57
24752;BME280;27246;52.376;4.628;2023-04-27T01:36:27;101976.97;;;6.43;68.35
24752;BME280;27246;52.376;4.628;2023-04-27T01:41:29;101971.09;;;6.47;68.08
24752;BME280;27246;52.376;4.628;2023-04-27T01:46:31;101976.00;;;6.44;68.35
24752;BME280;27246;52.376;4.628;2023-04-27T01:51:33;101975.50;;;6.38;69.22
24752;BME280;27246;52.376;4.628;2023-04-27T01:56:35;101962.13;;;6.24;69.06
24752;BME280;27246;52.376;4.628;2023-04-27T02:01:37;101957.03;;;6.19;69.34
24752;BME280;27246;52.376;4.628;2023-04-27T02:06:38;101955.56;;;6.15;69.03
24752;BME280;27246;52.376;4.628;2023-04-27T02:11:41;101967.38;;;6.16;69.92
24752;BME280;27246;52.376;4.628;2023-04-27T02:16:43;101970.56;;;6.21;69.79
24752;BME280;27246;52.376;4.628;2023-04-27T02:21:45;101956.16;;;6.19;69.62
24752;BME280;27246;52.376;4.628;2023-04-27T02:26:47;101961.63;;;6.19;69.80
24752;BME280;27246;52.376;4.628;2023-04-27T02:31:49;101958.06;;;6.07;69.71
24752;BME280;27246;52.376;4.628;2023-04-27T02:36:51;101956.06;;;6.09;69.87
24752;BME280;27246;52.376;4.628;2023-04-27T02:41:53;101951.13;;;6.03;70.32
24752;BME280;27246;52.376;4.628;2023-04-27T02:46:54;101959.31;;;6.03;69.75
24752;BME280;27246;52.376;4.628;2023-04-27T02:51:56;101967.59;;;6.13;69.59
24752;BME280;27246;52.376;4.628;2023-04-27T02:56:58;101962.00;;;6.14;69.23
24752;BME280;27246;52.376;4.628;2023-04-27T03:02:00;101970.50;;;6.00;68.75
24752;BME280;27246;52.376;4.628;2023-04-27T03:07:03;101969.41;;;5.80;69.43
24752;BME280;27246;52.376;4.628;2023-04-27T03:12:04;101969.03;;;5.85;70.09
24752;BME280;27246;52.376;4.628;2023-04-27T03:17:06;101967.19;;;5.85;70.63
24752;BME280;27246;52.376;4.628;2023-04-27T03:22:08;101970.03;;;5.84;70.89
24752;BME280;27246;52.376;4.628;2023-04-27T03:27:09;101966.44;;;5.83;70.31
24752;BME280;27246;52.376;4.628;2023-04-27T03:32:12;101961.84;;;5.84;70.50
24752;BME280;27246;52.376;4.628;2023-04-27T03:37:16;101967.94;;;5.87;70.86
24752;BME280;27246;52.376;4.628;2023-04-27T03:42:18;101969.69;;;5.77;71.16
24752;BME280;27246;52.376;4.628;2023-04-27T03:47:20;101973.50;;;5.74;71.66
24752;BME280;27246;52.376;4.628;2023-04-27T03:52:22;101971.53;;;5.65;71.72
24752;BME280;27246;52.376;4.628;2023-04-27T03:57:24;101978.38;;;5.71;71.86
24752;BME280;27246;52.376;4.628;2023-04-27T04:02:27;101974.28;;;5.65;71.55
24752;BME280;27246;52.376;4.628;2023-04-27T04:07:30;101978.75;;;5.55;71.70
24752;BME280;27246;52.376;4.628;2023-04-27T04:12:32;101988.06;;;5.64;71.74
24752;BME280;27246;52.376;4.628;2023-04-27T04:17:34;101994.16;;;5.56;72.04
24752;BME280;27246;52.376;4.628;2023-04-27T04:22:36;101993.66;;;5.51;72.97
24752;BME280;27246;52.376;4.628;2023-04-27T04:27:39;102002.59;;;5.53;73.08
24752;BME280;27246;52.376;4.628;2023-04-27T04:32:41;102001.72;;;5.52;72.55
24752;BME280;27246;52.376;4.628;2023-04-27T04:37:43;102011.53;;;5.44;73.36
24752;BME280;27246;52.376;4.628;2023-04-27T04:42:47;102003.59;;;5.40;73.57
24752;BME280;27246;52.376;4.628;2023-04-27T04:47:48;102013.28;;;5.45;73.17
24752;BME280;27246;52.376;4.628;2023-04-27T04:52:50;102010.53;;;5.56;72.89
24752;BME280;27246;52.376;4.628;2023-04-27T04:57:52;102013.03;;;5.59;73.15
24752;BME280;27246;52.376;4.628;2023-04-27T05:02:54;102013.53;;;5.53;73.87
24752;BME280;27246;52.376;4.628;2023-04-27T05:07:56;102013.03;;;5.59;73.07
24752;BME280;27246;52.376;4.628;2023-04-27T05:12:58;102008.22;;;5.63;72.38
24752;BME280;27246;52.376;4.628;2023-04-27T05:17:59;102016.03;;;5.45;72.28
24752;BME280;27246;52.376;4.628;2023-04-27T05:23:01;102018.50;;;5.48;72.32
24752;BME280;27246;52.376;4.628;2023-04-27T05:28:03;102023.81;;;5.27;72.03
24752;BME280;27246;52.376;4.628;2023-04-27T05:33:05;102027.09;;;5.08;72.60
24752;BME280;27246;52.376;4.628;2023-04-27T05:38:07;102019.94;;;5.18;73.53
24752;BME280;27246;52.376;4.628;2023-04-27T05:43:09;102014.53;;;5.40;70.55
24752;BME280;27246;52.376;4.628;2023-04-27T05:48:10;102015.28;;;5.43;69.27
24752;BME280;27246;52.376;4.628;2023-04-27T05:53:12;102008.53;;;5.24;69.17
24752;BME280;27246;52.376;4.628;2023-04-27T05:58:14;102019.47;;;5.35;68.34
24752;BME280;27246;52.376;4.628;2023-04-27T06:03:17;102020.00;;;5.63;68.13
24752;BME280;27246;52.376;4.628;2023-04-27T06:08:19;102023.13;;;5.58;66.73
24752;BME280;27246;52.376;4.628;2023-04-27T06:13:20;102021.22;;;5.48;66.44
24752;BME280;27246;52.376;4.628;2023-04-27T06:18:22;102032.16;;;5.36;66.33
24752;BME280;27246;52.376;4.628;2023-04-27T06:23:24;102035.63;;;5.50;66.34
24752;BME280;27246;52.376;4.628;2023-04-27T06:28:26;102035.41;;;5.64;65.85
24752;BME280;27246;52.376;4.628;2023-04-27T06:33:27;102040.75;;;5.88;65.36
24752;BME280;27246;52.376;4.628;2023-04-27T06:38:29;102038.13;;;5.87;65.89
24752;BME280;27246;52.376;4.628;2023-04-27T06:43:31;102026.06;;;6.00;65.08
24752;BME280;27246;52.376;4.628;2023-04-27T06:48:33;102019.72;;;6.11;64.27
24752;BME280;27246;52.376;4.628;2023-04-27T06:53:36;102016.34;;;6.19;62.88
24752;BME280;27246;52.376;4.628;2023-04-27T06:58:40;102028.63;;;6.36;62.57
24752;BME280;27246;52.376;4.628;2023-04-27T07:03:41;102024.75;;;6.38;62.36
24752;BME280;27246;52.376;4.628;2023-04-27T07:08:43;102030.56;;;6.56;62.28
24752;BME280;27246;52.376;4.628;2023-04-27T07:13:45;102024.44;;;6.64;60.06
24752;BME280;27246;52.376;4.628;2023-04-27T07:18:47;102030.59;;;6.77;60.29
24752;BME280;27246;52.376;4.628;2023-04-27T07:23:49;102029.81;;;7.08;60.16
24752;BME280;27246;52.376;4.628;2023-04-27T07:28:51;102028.72;;;7.10;59.70
24752;BME280;27246;52.376;4.628;2023-04-27T07:33:53;102031.72;;;7.49;58.75
24752;BME280;27246;52.376;4.628;2023-04-27T07:38:55;102039.25;;;7.36;58.31
24752;BME280;27246;52.376;4.628;2023-04-27T07:43:59;102035.19;;;7.30;58.29
24752;BME280;27246;52.376;4.628;2023-04-27T07:49:00;102030.78;;;7.60;57.25
24752;BME280;27246;52.376;4.628;2023-04-27T07:54:02;102028.81;;;7.72;57.37
24752;BME280;27246;52.376;4.628;2023-04-27T07:59:04;102032.72;;;7.69;55.96
24752;BME280;27246;52.376;4.628;2023-04-27T08:04:06;102033.63;;;7.79;54.94
24752;BME280;27246;52.376;4.628;2023-04-27T08:09:08;102038.47;;;7.97;55.14
24752;BME280;27246;52.376;4.628;2023-04-27T08:14:10;102043.66;;;8.00;54.43
24752;BME280;27246;52.376;4.628;2023-04-27T08:19:14;102032.22;;;8.35;53.40
24752;BME280;27246;52.376;4.628;2023-04-27T08:24:16;102023.59;;;8.59;53.86
24752;BME280;27246;52.376;4.628;2023-04-27T08:29:18;102028.50;;;8.46;52.97
24752;BME280;27246;52.376;4.628;2023-04-27T08:34:29;102020.00;;;8.88;52.27
24752;BME280;27246;52.376;4.628;2023-04-27T08:39:31;102032.84;;;8.97;52.37
24752;BME280;27246;52.376;4.628;2023-04-27T08:44:38;102024.88;;;9.33;51.12
24752;BME280;27246;52.376;4.628;2023-04-27T08:49:40;102027.84;;;9.69;50.55
24752;BME280;27246;52.376;4.628;2023-04-27T08:54:42;102018.38;;;9.81;50.11
24752;BME280;27246;52.376;4.628;2023-04-27T08:59:56;102018.47;;;9.90;49.82
24752;BME280;27246;52.376;4.628;2023-04-27T09:04:59;102014.66;;;10.28;48.24
24752;BME280;27246;52.376;4.628;2023-04-27T09:10:03;102013.59;;;10.11;46.21
24752;BME280;27246;52.376;4.628;2023-04-27T09:15:05;102013.16;;;10.16;46.71
24752;BME280;27246;52.376;4.628;2023-04-27T09:20:09;102009.13;;;10.56;45.26
24752;BME280;27246;52.376;4.628;2023-04-27T09:25:32;102015.63;;;10.55;46.62
24752;BME280;27246;52.376;4.628;2023-04-27T09:30:34;102005.19;;;10.76;44.18
24752;BME280;27246;52.376;4.628;2023-04-27T09:35:40;102004.63;;;10.73;45.15
24752;BME280;27246;52.376;4.628;2023-04-27T09:40:42;102005.41;;;10.83;43.87
24752;BME280;27246;52.376;4.628;2023-04-27T09:45:44;102003.22;;;10.69;44.34
24752;BME280;27246;52.376;4.628;2023-04-27T09:50:48;102016.78;;;10.80;45.00
24752;BME280;27246;52.376;4.628;2023-04-27T09:56:26;101999.38;;;10.61;44.57
24752;BME280;27246;52.376;4.628;2023-04-27T10:01:44;102008.09;;;10.75;44.67
24752;BME280;27246;52.376;4.628;2023-04-27T10:06:57;101997.06;;;10.75;44.12
24752;BME280;27246;52.376;4.628;2023-04-27T10:12:31;102001.94;;;11.17;44.38
24752;BME280;27246;52.376;4.628;2023-04-27T10:17:35;102002.06;;;11.33;43.17
24752;BME280;27246;52.376;4.628;2023-04-27T10:22:39;102003.81;;;11.60;43.35
24752;BME280;27246;52.376;4.628;2023-04-27T10:27:41;102005.91;;;11.67;41.93
24752;BME280;27246;52.376;4.628;2023-04-27T10:32:57;101998.13;;;11.96;41.49
24752;BME280;27246;52.376;4.628;2023-04-27T10:38:10;102001.84;;;11.79;42.61
24752;BME280;27246;52.376;4.628;2023-04-27T10:43:16;101993.22;;;12.25;40.61
24752;BME280;27246;52.376;4.628;2023-04-27T10:48:18;101984.19;;;12.57;40.62
24752;BME280;27246;52.376;4.628;2023-04-27T10:53:20;101975.75;;;12.75;40.27
24752;BME280;27246;52.376;4.628;2023-04-27T10:58:22;101973.66;;;12.60;40.88
24752;BME280;27246;52.376;4.628;2023-04-27T11:03:30;101969.88;;;13.11;38.19
24752;BME280;27246;52.376;4.628;2023-04-27T11:08:32;101957.06;;;13.34;38.34
24752;BME280;27246;52.376;4.628;2023-04-27T11:13:37;101952.72;;;13.96;38.01
24752;BME280;27246;52.376;4.628;2023-04-27T11:18:38;101950.34;;;13.85;37.89
24752;BME280;27246;52.376;4.628;2023-04-27T11:23:41;101952.44;;;13.74;35.13
24752;BME280;27246;52.376;4.628;2023-04-27T11:29:00;101941.94;;;13.62;36.63
24752;BME280;27246;52.376;4.628;2023-04-27T11:34:02;101946.41;;;13.79;35.57
24752;BME280;27246;52.376;4.628;2023-04-27T11:39:04;101939.66;;;14.13;36.20
24752;BME280;27246;52.376;4.628;2023-04-27T11:44:08;101932.50;;;14.50;35.60
24752;BME280;27246;52.376;4.628;2023-04-27T11:49:12;101927.97;;;14.26;35.31
24752;BME280;27246;52.376;4.628;2023-04-27T11:54:16;101932.72;;;14.63;35.52
24752;BME280;27246;52.376;4.628;2023-04-27T11:59:19;101933.00;;;14.22;34.35
24752;BME280;27246;52.376;4.628;2023-04-27T12:04:22;101929.28;;;14.61;34.06
24752;BME280;27246;52.376;4.628;2023-04-27T12:09:24;101925.81;;;14.59;32.57
24752;BME280;27246;52.376;4.628;2023-04-27T12:14:26;101916.72;;;14.50;32.02
24752;BME280;27246;52.376;4.628;2023-04-27T12:19:27;101914.56;;;14.37;33.46
24752;BME280;27246;52.376;4.628;2023-04-27T12:24:30;101909.69;;;14.39;34.68
24752;BME280;27246;52.376;4.628;2023-04-27T12:29:32;101908.53;;;14.80;33.84
24752;BME280;27246;52.376;4.628;2023-04-27T12:34:34;101906.81;;;14.79;33.28
24752;BME280;27246;52.376;4.628;2023-04-27T12:39:38;101895.19;;;14.98;32.76
24752;BME280;27246;52.376;4.628;2023-04-27T12:44:40;101907.97;;;14.62;33.51
24752;BME280;27246;52.376;4.628;2023-04-27T12:49:42;101896.00;;;14.15;34.56
24752;BME280;27246;52.376;4.628;2023-04-27T12:54:44;101894.53;;;13.96;34.79
24752;BME280;27246;52.376;4.628;2023-04-27T12:59:47;101890.50;;;13.75;35.68
24752;BME280;27246;52.376;4.628;2023-04-27T13:04:49;101889.69;;;13.98;34.56
24752;BME280;27246;52.376;4.628;2023-04-27T13:09:52;101892.06;;;14.09;33.41
24752;BME280;27246;52.376;4.628;2023-04-27T13:14:54;101887.97;;;13.97;33.31
24752;BME280;27246;52.376;4.628;2023-04-27T13:19:57;101886.59;;;13.93;34.33
24752;BME280;27246;52.376;4.628;2023-04-27T13:24:59;101878.31;;;13.93;33.93
24752;BME280;27246;52.376;4.628;2023-04-27T13:30:01;101882.78;;;13.94;33.85
24752;BME280;27246;52.376;4.628;2023-04-27T13:35:03;101861.25;;;14.04;33.96
24752;BME280;27246;52.376;4.628;2023-04-27T13:40:07;101859.03;;;14.23;33.68
24752;BME280;27246;52.376;4.628;2023-04-27T13:45:11;101859.47;;;13.80;33.09
24752;BME280;27246;52.376;4.628;2023-04-27T13:50:13;101848.50;;;13.55;33.72
24752;BME280;27246;52.376;4.628;2023-04-27T13:55:15;101851.72;;;13.75;34.39
24752;BME280;27246;52.376;4.628;2023-04-27T14:00:17;101840.53;;;13.69;35.04
24752;BME280;27246;52.376;4.628;2023-04-27T14:05:20;101826.81;;;13.75;35.28
24752;BME280;27246;52.376;4.628;2023-04-27T14:10:21;101815.78;;;13.67;35.69
24752;BME280;27246;52.376;4.628;2023-04-27T14:15:23;101808.59;;;13.81;35.95
24752;BME280;27246;52.376;4.628;2023-04-27T14:20:25;101794.66;;;13.66;35.37
24752;BME280;27246;52.376;4.628;2023-04-27T14:25:29;101792.78;;;13.67;35.03
24752;BME280;27246;52.376;4.628;2023-04-27T14:30:33;101791.44;;;13.54;35.41
24752;BME280;27246;52.376;4.628;2023-04-27T14:35:35;101790.50;;;13.93;35.63
24752;BME280;27246;52.376;4.628;2023-04-27T14:40:37;101786.34;;;13.66;35.25
24752;BME280;27246;52.376;4.628;2023-04-27T14:45:39;101779.09;;;13.65;35.31
24752;BME280;27246;52.376;4.628;2023-04-27T14:50:53;101785.88;;;13.63;35.45
24752;BME280;27246;52.376;4.628;2023-04-27T14:55:54;101772.78;;;13.79;34.76
24752;BME280;27246;52.376;4.628;2023-04-27T15:00:56;101764.66;;;14.01;34.78
24752;BME280;27246;52.376;4.628;2023-04-27T15:05:59;101758.13;;;14.17;35.47
24752;BME280;27246;52.376;4.628;2023-04-27T15:11:01;101760.09;;;14.46;34.78
24752;BME280;27246;52.376;4.628;2023-04-27T15:16:04;101751.91;;;14.15;35.09
24752;BME280;27246;52.376;4.628;2023-04-27T15:21:07;101751.16;;;14.21;34.49
24752;BME280;27246;52.376;4.628;2023-04-27T15:26:09;101747.44;;;13.91;34.96
24752;BME280;27246;52.376;4.628;2023-04-27T15:31:12;101738.38;;;13.97;34.67
24752;BME280;27246;52.376;4.628;2023-04-27T15:36:15;101722.38;;;14.07;34.76
24752;BME280;27246;52.376;4.628;2023-04-27T15:41:18;101730.53;;;14.24;35.17
24752;BME280;27246;52.376;4.628;2023-04-27T15:46:20;101721.72;;;14.20;35.04
24752;BME280;27246;52.376;4.628;2023-04-27T15:51:21;101718.59;;;14.00;34.60
24752;BME280;27246;52.376;4.628;2023-04-27T15:56:23;101721.16;;;13.87;34.64
24752;BME280;27246;52.376;4.628;2023-04-27T16:01:25;101713.25;;;13.75;34.78
24752;BME280;27246;52.376;4.628;2023-04-27T16:06:30;101710.16;;;13.70;35.65
24752;BME280;27246;52.376;4.628;2023-04-27T16:11:32;101698.91;;;13.72;35.36
24752;BME280;27246;52.376;4.628;2023-04-27T16:16:34;101680.03;;;13.75;34.79
24752;BME280;27246;52.376;4.628;2023-04-27T16:21:37;101669.81;;;13.53;35.79
24752;BME280;27246;52.376;4.628;2023-04-27T16:26:39;101666.25;;;13.36;36.50
24752;BME280;27246;52.376;4.628;2023-04-27T16:31:40;101664.97;;;13.24;38.57
24752;BME280;27246;52.376;4.628;2023-04-27T16:36:50;101673.94;;;13.26;37.44
24752;BME280;27246;52.376;4.628;2023-04-27T16:41:52;101654.50;;;13.11;38.94
24752;BME280;27246;52.376;4.628;2023-04-27T16:46:54;101652.59;;;13.11;38.92
24752;BME280;27246;52.376;4.628;2023-04-27T16:51:56;101656.03;;;12.82;39.50
24752;BME280;27246;52.376;4.628;2023-04-27T16:56:57;101658.19;;;12.64;39.58
24752;BME280;27246;52.376;4.628;2023-04-27T17:01:59;101645.06;;;12.66;39.39
24752;BME280;27246;52.376;4.628;2023-04-27T17:07:21;101648.56;;;12.51;39.22
24752;BME280;27246;52.376;4.628;2023-04-27T17:12:24;101640.66;;;12.24;40.01
24752;BME280;27246;52.376;4.628;2023-04-27T17:17:26;101632.00;;;12.27;40.35
24752;BME280;27246;52.376;4.628;2023-04-27T17:22:28;101636.69;;;12.18;40.64
24752;BME280;27246;52.376;4.628;2023-04-27T17:27:30;101631.69;;;12.21;41.43
24752;BME280;27246;52.376;4.628;2023-04-27T17:32:32;101634.53;;;11.80;42.21
24752;BME280;27246;52.376;4.628;2023-04-27T17:37:33;101649.34;;;11.88;42.52
24752;BME280;27246;52.376;4.628;2023-04-27T17:42:35;101644.16;;;11.68;42.68
24752;BME280;27246;52.376;4.628;2023-04-27T17:47:37;101649.00;;;11.66;42.92
24752;BME280;27246;52.376;4.628;2023-04-27T17:52:39;101631.75;;;11.39;43.81
24752;BME280;27246;52.376;4.628;2023-04-27T17:57:41;101622.78;;;11.37;44.44
24752;BME280;27246;52.376;4.628;2023-04-27T18:02:44;101618.81;;;11.40;45.25
24752;BME280;27246;52.376;4.628;2023-04-27T18:07:48;101616.56;;;11.35;45.55
24752;BME280;27246;52.376;4.628;2023-04-27T18:12:50;101615.19;;;11.48;45.87
24752;BME280;27246;52.376;4.628;2023-04-27T18:17:52;101615.34;;;11.30;46.12
24752;BME280;27246;52.376;4.628;2023-04-27T18:23:02;101604.16;;;11.23;46.47
24752;BME280;27246;52.376;4.628;2023-04-27T18:28:04;101608.56;;;10.99;47.79
24752;BME280;27246;52.376;4.628;2023-04-27T18:33:06;101605.50;;;11.03;48.60
24752;BME280;27246;52.376;4.628;2023-04-27T18:38:08;101599.97;;;10.94;49.04
24752;BME280;27246;52.376;4.628;2023-04-27T18:43:09;101599.59;;;10.89;49.96
24752;BME280;27246;52.376;4.628;2023-04-27T18:48:11;101595.47;;;11.01;50.10
24752;BME280;27246;52.376;4.628;2023-04-27T18:53:13;101591.34;;;11.06;50.76
24752;BME280;27246;52.376;4.628;2023-04-27T18:58:14;101598.94;;;11.04;50.57
24752;BME280;27246;52.376;4.628;2023-04-27T19:03:17;101591.19;;;11.07;51.21
24752;BME280;27246;52.376;4.628;2023-04-27T19:08:19;101590.69;;;11.12;51.39
24752;BME280;27246;52.376;4.628;2023-04-27T19:13:21;101592.41;;;11.13;51.49
24752;BME280;27246;52.376;4.628;2023-04-27T19:18:25;101583.63;;;11.17;51.44
24752;BME280;27246;52.376;4.628;2023-04-27T19:23:27;101589.97;;;11.10;50.95
24752;BME280;27246;52.376;4.628;2023-04-27T19:28:29;101580.00;;;11.00;51.22
24752;BME280;27246;52.376;4.628;2023-04-27T19:33:30;101591.38;;;11.14;50.74
24752;BME280;27246;52.376;4.628;2023-04-27T19:38:32;101592.41;;;11.13;49.72
24752;BME280;27246;52.376;4.628;2023-04-27T19:43:34;101592.94;;;11.16;49.16
24752;BME280;27246;52.376;4.628;2023-04-27T19:48:36;101592.41;;;11.13;47.21
24752;BME280;27246;52.376;4.628;2023-04-27T19:53:38;101581.53;;;11.11;46.31
24752;BME280;27246;52.376;4.628;2023-04-27T19:58:40;101581.38;;;11.05;45.55
24752;BME280;27246;52.376;4.628;2023-04-27T20:03:42;101572.75;;;10.99;44.11
24752;BME280;27246;52.376;4.628;2023-04-27T20:08:44;101571.19;;;11.05;43.91
24752;BME280;27246;52.376;4.628;2023-04-27T20:13:46;101572.94;;;11.14;43.96
24752;BME280;27246;52.376;4.628;2023-04-27T20:18:48;101565.16;;;11.10;43.17
24752;BME280;27246;52.376;4.628;2023-04-27T20:23:50;101546.56;;;11.12;43.25
24752;BME280;27246;52.376;4.628;2023-04-27T20:28:51;101540.03;;;11.05;43.06
24752;BME280;27246;52.376;4.628;2023-04-27T20:33:53;101532.44;;;10.98;42.77
24752;BME280;27246;52.376;4.628;2023-04-27T20:38:55;101522.41;;;10.89;42.46
24752;BME280;27246;52.376;4.628;2023-04-27T20:43:58;101519.16;;;10.94;42.74
24752;BME280;27246;52.376;4.628;2023-04-27T20:49:01;101516.91;;;10.89;42.82
24752;BME280;27246;52.376;4.628;2023-04-27T20:54:04;101506.19;;;10.78;42.35
24752;BME280;27246;52.376;4.628;2023-04-27T20:59:05;101502.41;;;10.79;42.54
24752;BME280;27246;52.376;4.628;2023-04-27T21:04:08;101498.63;;;10.88;43.12
24752;BME280;27246;52.376;4.628;2023-04-27T21:09:12;101498.63;;;10.80;42.68
24752;BME280;27246;52.376;4.628;2023-04-27T21:14:15;101495.34;;;10.85;42.30
24752;BME280;27246;52.376;4.628;2023-04-27T21:19:18;101483.47;;;10.84;42.85
24752;BME280;27246;52.376;4.628;2023-04-27T21:24:19;101478.81;;;10.76;43.37
24752;BME280;27246;52.376;4.628;2023-04-27T21:29:23;101465.88;;;10.77;43.33
24752;BME280;27246;52.376;4.628;2023-04-27T21:34:25;101451.41;;;10.75;43.02
24752;BME280;27246;52.376;4.628;2023-04-27T21:39:27;101450.72;;;10.65;42.98
24752;BME280;27246;52.376;4.628;2023-04-27T21:44:28;101449.34;;;10.60;43.36
24752;BME280;27246;52.376;4.628;2023-04-27T21:49:30;101431.41;;;10.56;43.67
24752;BME280;27246;52.376;4.628;2023-04-27T21:54:32;101427.28;;;10.44;44.18
24752;BME280;27246;52.376;4.628;2023-04-27T21:59:33;101408.31;;;10.41;44.21
24752;BME280;27246;52.376;4.628;2023-04-27T22:04:36;101404.53;;;10.34;44.77
24752;BME280;27246;52.376;4.628;2023-04-27T22:09:39;101404.88;;;10.31;44.77
24752;BME280;27246;52.376;4.628;2023-04-27T22:14:41;101394.06;;;10.37;45.72
24752;BME280;27246;52.376;4.628;2023-04-27T22:19:43;101380.06;;;10.31;44.84
24752;BME280;27246;52.376;4.628;2023-04-27T22:24:48;101392.47;;;10.27;45.51
24752;BME280;27246;52.376;4.628;2023-04-27T22:29:49;101393.00;;;10.38;45.16
24752;BME280;27246;52.376;4.628;2023-04-27T22:34:52;101391.97;;;10.31;45.89
24752;BME280;27246;52.376;4.628;2023-04-27T22:39:54;101381.66;;;10.25;45.94
24752;BME280;27246;52.376;4.628;2023-04-27T22:44:56;101371.81;;;10.23;46.27
24752;BME280;27246;52.376;4.628;2023-04-27T22:49:58;101372.84;;;10.21;46.18
24752;BME280;27246;52.376;4.628;2023-04-27T22:55:02;101362.84;;;10.12;46.45
24752;BME280;27246;52.376;4.628;2023-04-27T23:00:04;101354.56;;;10.04;47.33
24752;BME280;27246;52.376;4.628;2023-04-27T23:05:07;101346.31;;;10.04;47.17
24752;BME280;27246;52.376;4.628;2023-04-27T23:10:09;101347.53;;;10.18;47.88
24752;BME280;27246;52.376;4.628;2023-04-27T23:15:11;101342.56;;;10.05;47.92
24752;BME280;27246;52.376;4.628;2023-04-27T23:20:13;101347.34;;;9.95;48.08
24752;BME280;27246;52.376;4.628;2023-04-27T23:25:31;101329.94;;;9.94;48.58
24752;BME280;27246;52.376;4.628;2023-04-27T23:30:33;101321.53;;;9.96;48.47
24752;BME280;27246;52.376;4.628;2023-04-27T23:35:34;101305.84;;;9.88;48.42
24752;BME280;27246;52.376;4.628;2023-04-27T23:40:36;101308.94;;;9.77;49.10
24752;BME280;27246;52.376;4.628;2023-04-27T23:45:38;101315.00;;;9.89;49.09
24752;BME280;27246;52.376;4.628;2023-04-27T23:50:39;101307.44;;;9.91;48.36
24752;BME280;27246;52.376;4.628;2023-04-27T23:55:41;101299.19;;;9.91;48.12
